sensor_id;sensor_type;location;lat;lon;timestamp;P1;durP1;ratioP1;P2;durP2;ratioP2
15938;SDS011;8068;51.322;9.450;2023-03-16T00:01:19;4.63;;;4.23;;
15938;SDS011;8068;51.322;9.450;2023-03-16T00:03:46;11.93;;;4.87;;
15938;SDS011;8068;51.322;9.450;2023-03-16T00:06:13;5.30;;;4.00;;
15938;SDS011;8068;51.322;9.450;2023-03-16T00:08:39;4.90;;;4.50;;
15938;SDS011;8068;51.322;9.450;2023-03-16T00:11:05;7.43;;;4.43;;
15938;SDS011;8068;51.322;9.450;2023-03-16T00:13:32;5.80;;;4.63;;
15938;SDS011;8068;51.322;9.450;2023-03-16T00:15:59;5.00;;;4.60;;
15938;SDS011;8068;51.322;9.450;2023-03-16T00:18:29;6.90;;;4.73;;
15938;SDS011;8068;51.322;9.450;2023-03-16T00:20:58;6.47;;;4.20;;
15938;SDS011;8068;51.322;9.450;2023-03-16T00:23:27;5.10;;;4.57;;
15938;SDS011;8068;51.322;9.450;2023-03-16T00:25:57;5.43;;;5.00;;
15938;SDS011;8068;51.322;9.450;2023-03-16T00:28:24;6.27;;;4.20;;
15938;SDS011;8068;51.322;9.450;2023-03-16T00:30:51;9.00;;;4.93;;
15938;SDS011;8068;51.322;9.450;2023-03-16T00:33:17;6.50;;;4.97;;
15938;SDS011;8068;51.322;9.450;2023-03-16T00:35:47;5.20;;;4.37;;
15938;SDS011;8068;51.322;9.450;2023-03-16T00:38:27;7.63;;;4.30;;
15938;SDS011;8068;51.322;9.450;2023-03-16T00:40:54;4.53;;;4.20;;
15938;SDS011;8068;51.322;9.450;2023-03-16T00:43:21;5.50;;;4.60;;
15938;SDS011;8068;51.322;9.450;2023-03-16T00:45:47;4.97;;;4.47;;
15938;SDS011;8068;51.322;9.450;2023-03-16T00:48:13;6.73;;;4.67;;
15938;SDS011;8068;51.322;9.450;2023-03-16T00:50:39;6.50;;;4.87;;
15938;SDS011;8068;51.322;9.450;2023-03-16T00:53:07;12.97;;;5.40;;
15938;SDS011;8068;51.322;9.450;2023-03-16T00:55:33;5.57;;;5.07;;
15938;SDS011;8068;51.322;9.450;2023-03-16T00:58:00;5.87;;;5.33;;
15938;SDS011;8068;51.322;9.450;2023-03-16T01:00:29;6.03;;;5.53;;
15938;SDS011;8068;51.322;9.450;2023-03-16T01:02:55;4.93;;;4.53;;
15938;SDS011;8068;51.322;9.450;2023-03-16T01:05:22;5.80;;;4.60;;
15938;SDS011;8068;51.322;9.450;2023-03-16T01:07:48;21.03;;;5.37;;
15938;SDS011;8068;51.322;9.450;2023-03-16T01:10:14;5.00;;;4.60;;
15938;SDS011;8068;51.322;9.450;2023-03-16T01:12:40;7.13;;;4.83;;
15938;SDS011;8068;51.322;9.450;2023-03-16T01:15:09;5.57;;;4.93;;
15938;SDS011;8068;51.322;9.450;2023-03-16T01:17:36;4.47;;;4.07;;
15938;SDS011;8068;51.322;9.450;2023-03-16T01:20:02;5.00;;;4.60;;
15938;SDS011;8068;51.322;9.450;2023-03-16T01:22:32;6.97;;;4.60;;
15938;SDS011;8068;51.322;9.450;2023-03-16T01:24:59;5.73;;;4.53;;
15938;SDS011;8068;51.322;9.450;2023-03-16T01:27:25;5.40;;;4.90;;
15938;SDS011;8068;51.322;9.450;2023-03-16T01:29:51;6.47;;;4.43;;
15938;SDS011;8068;51.322;9.450;2023-03-16T01:32:17;4.77;;;4.30;;
15938;SDS011;8068;51.322;9.450;2023-03-16T01:34:43;5.20;;;4.80;;
15938;SDS011;8068;51.322;9.450;2023-03-16T01:37:09;4.90;;;4.50;;
15938;SDS011;8068;51.322;9.450;2023-03-16T01:39:36;7.20;;;5.60;;
15938;SDS011;8068;51.322;9.450;2023-03-16T01:42:02;5.20;;;4.37;;
15938;SDS011;8068;51.322;9.450;2023-03-16T01:44:28;6.33;;;4.93;;
15938;SDS011;8068;51.322;9.450;2023-03-16T01:46:59;6.60;;;5.10;;
15938;SDS011;8068;51.322;9.450;2023-03-16T01:49:27;9.60;;;5.00;;
15938;SDS011;8068;51.322;9.450;2023-03-16T01:51:59;6.37;;;4.67;;
15938;SDS011;8068;51.322;9.450;2023-03-16T01:54:29;6.43;;;4.40;;
15938;SDS011;8068;51.322;9.450;2023-03-16T01:59:35;7.03;;;4.60;;
15938;SDS011;8068;51.322;9.450;2023-03-16T02:02:08;8.23;;;4.57;;
15938;SDS011;8068;51.322;9.450;2023-03-16T02:04:52;8.13;;;4.63;;
15938;SDS011;8068;51.322;9.450;2023-03-16T02:07:21;4.17;;;3.87;;
15938;SDS011;8068;51.322;9.450;2023-03-16T02:09:50;4.73;;;4.43;;
15938;SDS011;8068;51.322;9.450;2023-03-16T02:12:19;4.80;;;4.37;;
15938;SDS011;8068;51.322;9.450;2023-03-16T02:14:46;4.60;;;4.20;;
15938;SDS011;8068;51.322;9.450;2023-03-16T02:17:14;6.17;;;4.10;;
15938;SDS011;8068;51.322;9.450;2023-03-16T02:22:13;4.20;;;3.40;;
15938;SDS011;8068;51.322;9.450;2023-03-16T02:24:39;3.43;;;3.13;;
15938;SDS011;8068;51.322;9.450;2023-03-16T02:30:07;4.47;;;3.60;;
15938;SDS011;8068;51.322;9.450;2023-03-16T02:32:36;5.70;;;3.47;;
15938;SDS011;8068;51.322;9.450;2023-03-16T02:35:03;3.80;;;3.53;;
15938;SDS011;8068;51.322;9.450;2023-03-16T02:37:30;5.90;;;3.60;;
15938;SDS011;8068;51.322;9.450;2023-03-16T02:39:59;6.13;;;3.63;;
15938;SDS011;8068;51.322;9.450;2023-03-16T02:42:26;3.40;;;3.20;;
15938;SDS011;8068;51.322;9.450;2023-03-16T02:44:55;4.80;;;3.43;;
15938;SDS011;8068;51.322;9.450;2023-03-16T02:47:36;4.20;;;3.60;;
15938;SDS011;8068;51.322;9.450;2023-03-16T02:50:06;4.87;;;3.27;;
15938;SDS011;8068;51.322;9.450;2023-03-16T02:52:33;4.27;;;3.97;;
15938;SDS011;8068;51.322;9.450;2023-03-16T02:55:00;4.03;;;3.73;;
15938;SDS011;8068;51.322;9.450;2023-03-16T02:57:26;4.27;;;3.87;;
15938;SDS011;8068;51.322;9.450;2023-03-16T02:59:53;3.90;;;3.67;;
15938;SDS011;8068;51.322;9.450;2023-03-16T03:02:19;5.13;;;3.40;;
15938;SDS011;8068;51.322;9.450;2023-03-16T03:04:45;3.50;;;3.30;;
15938;SDS011;8068;51.322;9.450;2023-03-16T03:07:12;3.83;;;3.33;;
15938;SDS011;8068;51.322;9.450;2023-03-16T03:09:39;5.83;;;3.93;;
15938;SDS011;8068;51.322;9.450;2023-03-16T03:12:09;3.40;;;3.10;;
15938;SDS011;8068;51.322;9.450;2023-03-16T03:14:35;7.90;;;3.80;;
15938;SDS011;8068;51.322;9.450;2023-03-16T03:17:05;5.70;;;3.27;;
15938;SDS011;8068;51.322;9.450;2023-03-16T03:19:32;3.23;;;3.00;;
15938;SDS011;8068;51.322;9.450;2023-03-16T03:22:00;3.20;;;3.03;;
15938;SDS011;8068;51.322;9.450;2023-03-16T03:24:29;3.20;;;2.90;;
15938;SDS011;8068;51.322;9.450;2023-03-16T03:26:56;4.27;;;3.17;;
15938;SDS011;8068;51.322;9.450;2023-03-16T03:29:25;3.77;;;3.00;;
15938;SDS011;8068;51.322;9.450;2023-03-16T03:31:59;3.63;;;3.30;;
15938;SDS011;8068;51.322;9.450;2023-03-16T03:34:27;4.33;;;2.93;;
15938;SDS011;8068;51.322;9.450;2023-03-16T03:36:53;8.20;;;3.30;;
15938;SDS011;8068;51.322;9.450;2023-03-16T03:39:20;3.00;;;2.80;;
15938;SDS011;8068;51.322;9.450;2023-03-16T03:41:46;5.43;;;2.77;;
15938;SDS011;8068;51.322;9.450;2023-03-16T03:44:12;3.37;;;3.17;;
15938;SDS011;8068;51.322;9.450;2023-03-16T03:46:38;3.30;;;3.00;;
15938;SDS011;8068;51.322;9.450;2023-03-16T03:49:04;3.10;;;2.90;;
15938;SDS011;8068;51.322;9.450;2023-03-16T03:51:31;6.30;;;3.13;;
15938;SDS011;8068;51.322;9.450;2023-03-16T03:53:58;4.07;;;3.13;;
15938;SDS011;8068;51.322;9.450;2023-03-16T03:56:24;6.47;;;3.73;;
15938;SDS011;8068;51.322;9.450;2023-03-16T03:58:50;4.40;;;3.30;;
15938;SDS011;8068;51.322;9.450;2023-03-16T04:01:17;3.20;;;3.00;;
15938;SDS011;8068;51.322;9.450;2023-03-16T04:03:43;4.43;;;3.17;;
15938;SDS011;8068;51.322;9.450;2023-03-16T04:06:10;2.77;;;2.57;;
15938;SDS011;8068;51.322;9.450;2023-03-16T04:08:36;2.70;;;2.40;;
15938;SDS011;8068;51.322;9.450;2023-03-16T04:11:02;2.50;;;2.30;;
15938;SDS011;8068;51.322;9.450;2023-03-16T04:13:29;3.43;;;2.40;;
15938;SDS011;8068;51.322;9.450;2023-03-16T04:16:01;2.73;;;2.63;;
15938;SDS011;8068;51.322;9.450;2023-03-16T04:18:30;2.50;;;2.40;;
15938;SDS011;8068;51.322;9.450;2023-03-16T04:21:04;2.40;;;2.30;;
15938;SDS011;8068;51.322;9.450;2023-03-16T04:23:31;3.03;;;2.50;;
15938;SDS011;8068;51.322;9.450;2023-03-16T04:26:00;2.63;;;2.53;;
15938;SDS011;8068;51.322;9.450;2023-03-16T04:28:26;2.53;;;2.33;;
15938;SDS011;8068;51.322;9.450;2023-03-16T04:30:53;3.13;;;2.80;;
15938;SDS011;8068;51.322;9.450;2023-03-16T04:33:19;5.00;;;2.50;;
15938;SDS011;8068;51.322;9.450;2023-03-16T04:35:46;3.13;;;2.90;;
15938;SDS011;8068;51.322;9.450;2023-03-16T04:38:13;8.77;;;2.87;;
15938;SDS011;8068;51.322;9.450;2023-03-16T04:40:39;3.77;;;3.23;;
15938;SDS011;8068;51.322;9.450;2023-03-16T04:43:05;4.53;;;3.57;;
15938;SDS011;8068;51.322;9.450;2023-03-16T04:45:32;3.30;;;3.10;;
15938;SDS011;8068;51.322;9.450;2023-03-16T04:47:58;3.63;;;3.33;;
15938;SDS011;8068;51.322;9.450;2023-03-16T04:50:24;4.43;;;3.33;;
15938;SDS011;8068;51.322;9.450;2023-03-16T04:52:50;3.53;;;3.23;;
15938;SDS011;8068;51.322;9.450;2023-03-16T04:55:16;3.00;;;2.80;;
15938;SDS011;8068;51.322;9.450;2023-03-16T04:57:42;4.07;;;3.60;;
15938;SDS011;8068;51.322;9.450;2023-03-16T05:00:09;4.00;;;3.20;;
15938;SDS011;8068;51.322;9.450;2023-03-16T05:02:46;4.87;;;3.67;;
15938;SDS011;8068;51.322;9.450;2023-03-16T05:05:13;3.47;;;3.27;;
15938;SDS011;8068;51.322;9.450;2023-03-16T05:07:40;4.17;;;3.60;;
15938;SDS011;8068;51.322;9.450;2023-03-16T05:10:08;4.10;;;3.30;;
15938;SDS011;8068;51.322;9.450;2023-03-16T05:12:34;3.80;;;3.37;;
15938;SDS011;8068;51.322;9.450;2023-03-16T05:15:01;3.87;;;3.40;;
15938;SDS011;8068;51.322;9.450;2023-03-16T05:17:27;3.07;;;2.87;;
15938;SDS011;8068;51.322;9.450;2023-03-16T05:19:53;7.83;;;4.00;;
15938;SDS011;8068;51.322;9.450;2023-03-16T05:22:19;5.23;;;4.60;;
15938;SDS011;8068;51.322;9.450;2023-03-16T05:24:45;4.90;;;2.90;;
15938;SDS011;8068;51.322;9.450;2023-03-16T05:27:11;7.00;;;3.30;;
15938;SDS011;8068;51.322;9.450;2023-03-16T05:29:37;3.83;;;3.53;;
15938;SDS011;8068;51.322;9.450;2023-03-16T05:32:03;4.83;;;3.40;;
15938;SDS011;8068;51.322;9.450;2023-03-16T05:34:31;4.97;;;4.00;;
15938;SDS011;8068;51.322;9.450;2023-03-16T05:36:57;4.27;;;3.50;;
15938;SDS011;8068;51.322;9.450;2023-03-16T05:39:23;5.50;;;3.60;;
15938;SDS011;8068;51.322;9.450;2023-03-16T05:41:49;4.23;;;3.43;;
15938;SDS011;8068;51.322;9.450;2023-03-16T05:44:15;3.10;;;2.90;;
15938;SDS011;8068;51.322;9.450;2023-03-16T05:46:41;3.70;;;3.23;;
15938;SDS011;8068;51.322;9.450;2023-03-16T05:49:10;3.77;;;3.10;;
15938;SDS011;8068;51.322;9.450;2023-03-16T05:51:37;2.63;;;2.53;;
15938;SDS011;8068;51.322;9.450;2023-03-16T05:54:03;9.30;;;3.07;;
15938;SDS011;8068;51.322;9.450;2023-03-16T05:56:30;3.53;;;3.33;;
15938;SDS011;8068;51.322;9.450;2023-03-16T05:58:56;3.80;;;2.80;;
15938;SDS011;8068;51.322;9.450;2023-03-16T06:01:22;3.83;;;3.43;;
15938;SDS011;8068;51.322;9.450;2023-03-16T06:03:48;4.00;;;3.70;;
15938;SDS011;8068;51.322;9.450;2023-03-16T06:06:17;3.93;;;3.20;;
15938;SDS011;8068;51.322;9.450;2023-03-16T06:08:43;3.40;;;3.10;;
15938;SDS011;8068;51.322;9.450;2023-03-16T06:11:10;2.73;;;2.50;;
15938;SDS011;8068;51.322;9.450;2023-03-16T06:13:37;13.33;;;3.10;;
15938;SDS011;8068;51.322;9.450;2023-03-16T06:16:04;3.17;;;2.97;;
15938;SDS011;8068;51.322;9.450;2023-03-16T06:18:33;3.63;;;3.33;;
15938;SDS011;8068;51.322;9.450;2023-03-16T06:20:59;3.80;;;3.50;;
15938;SDS011;8068;51.322;9.450;2023-03-16T06:23:26;3.10;;;2.67;;
15938;SDS011;8068;51.322;9.450;2023-03-16T06:25:52;4.67;;;2.57;;
15938;SDS011;8068;51.322;9.450;2023-03-16T06:28:20;2.57;;;2.37;;
15938;SDS011;8068;51.322;9.450;2023-03-16T06:30:47;2.47;;;2.27;;
15938;SDS011;8068;51.322;9.450;2023-03-16T06:33:14;3.17;;;2.87;;
15938;SDS011;8068;51.322;9.450;2023-03-16T06:35:40;3.73;;;2.30;;
15938;SDS011;8068;51.322;9.450;2023-03-16T06:38:06;2.33;;;2.23;;
15938;SDS011;8068;51.322;9.450;2023-03-16T06:40:32;2.53;;;2.23;;
15938;SDS011;8068;51.322;9.450;2023-03-16T06:42:58;2.50;;;2.40;;
15938;SDS011;8068;51.322;9.450;2023-03-16T06:45:25;4.27;;;2.50;;
15938;SDS011;8068;51.322;9.450;2023-03-16T06:47:51;6.23;;;2.90;;
15938;SDS011;8068;51.322;9.450;2023-03-16T06:50:17;2.03;;;1.90;;
15938;SDS011;8068;51.322;9.450;2023-03-16T06:52:43;3.27;;;2.53;;
15938;SDS011;8068;51.322;9.450;2023-03-16T06:55:09;3.40;;;2.20;;
15938;SDS011;8068;51.322;9.450;2023-03-16T06:57:37;2.70;;;2.50;;
15938;SDS011;8068;51.322;9.450;2023-03-16T07:00:03;3.20;;;3.00;;
15938;SDS011;8068;51.322;9.450;2023-03-16T07:02:32;2.50;;;2.30;;
15938;SDS011;8068;51.322;9.450;2023-03-16T07:05:01;2.83;;;2.63;;
15938;SDS011;8068;51.322;9.450;2023-03-16T07:07:27;2.73;;;2.60;;
15938;SDS011;8068;51.322;9.450;2023-03-16T07:09:53;3.93;;;2.20;;
15938;SDS011;8068;51.322;9.450;2023-03-16T07:12:19;4.07;;;2.60;;
15938;SDS011;8068;51.322;9.450;2023-03-16T07:14:46;2.10;;;2.00;;
15938;SDS011;8068;51.322;9.450;2023-03-16T07:17:16;4.53;;;2.80;;
15938;SDS011;8068;51.322;9.450;2023-03-16T07:19:42;3.30;;;3.00;;
15938;SDS011;8068;51.322;9.450;2023-03-16T07:22:08;3.07;;;2.87;;
15938;SDS011;8068;51.322;9.450;2023-03-16T07:24:35;2.83;;;2.60;;
15938;SDS011;8068;51.322;9.450;2023-03-16T07:27:01;2.60;;;2.40;;
15938;SDS011;8068;51.322;9.450;2023-03-16T07:29:27;6.37;;;2.77;;
15938;SDS011;8068;51.322;9.450;2023-03-16T07:31:53;4.30;;;2.50;;
15938;SDS011;8068;51.322;9.450;2023-03-16T07:34:20;2.87;;;2.57;;
15938;SDS011;8068;51.322;9.450;2023-03-16T07:36:46;2.80;;;2.60;;
15938;SDS011;8068;51.322;9.450;2023-03-16T07:39:14;2.87;;;2.77;;
15938;SDS011;8068;51.322;9.450;2023-03-16T07:41:42;2.80;;;2.60;;
15938;SDS011;8068;51.322;9.450;2023-03-16T07:44:09;2.67;;;2.50;;
15938;SDS011;8068;51.322;9.450;2023-03-16T07:46:36;5.87;;;2.33;;
15938;SDS011;8068;51.322;9.450;2023-03-16T07:49:02;4.93;;;2.57;;
15938;SDS011;8068;51.322;9.450;2023-03-16T07:51:28;3.13;;;2.40;;
15938;SDS011;8068;51.322;9.450;2023-03-16T07:53:54;3.00;;;2.70;;
15938;SDS011;8068;51.322;9.450;2023-03-16T07:56:20;2.37;;;2.17;;
15938;SDS011;8068;51.322;9.450;2023-03-16T07:58:46;4.80;;;2.43;;
15938;SDS011;8068;51.322;9.450;2023-03-16T08:01:12;3.37;;;2.97;;
15938;SDS011;8068;51.322;9.450;2023-03-16T08:03:38;2.43;;;2.33;;
15938;SDS011;8068;51.322;9.450;2023-03-16T08:06:05;3.90;;;2.97;;
15938;SDS011;8068;51.322;9.450;2023-03-16T08:08:31;3.20;;;2.20;;
15938;SDS011;8068;51.322;9.450;2023-03-16T08:10:57;2.80;;;2.60;;
15938;SDS011;8068;51.322;9.450;2023-03-16T08:13:23;3.00;;;2.77;;
15938;SDS011;8068;51.322;9.450;2023-03-16T08:15:52;2.50;;;2.10;;
15938;SDS011;8068;51.322;9.450;2023-03-16T08:18:24;4.13;;;2.90;;
15938;SDS011;8068;51.322;9.450;2023-03-16T08:20:51;2.67;;;2.40;;
15938;SDS011;8068;51.322;9.450;2023-03-16T08:23:17;2.33;;;2.20;;
15938;SDS011;8068;51.322;9.450;2023-03-16T08:25:44;4.30;;;2.70;;
15938;SDS011;8068;51.322;9.450;2023-03-16T08:28:10;3.13;;;2.93;;
15938;SDS011;8068;51.322;9.450;2023-03-16T08:30:42;3.60;;;2.63;;
15938;SDS011;8068;51.322;9.450;2023-03-16T08:33:10;2.90;;;2.70;;
15938;SDS011;8068;51.322;9.450;2023-03-16T08:35:36;3.07;;;2.87;;
15938;SDS011;8068;51.322;9.450;2023-03-16T08:38:09;6.40;;;2.30;;
15938;SDS011;8068;51.322;9.450;2023-03-16T08:40:36;2.00;;;1.87;;
15938;SDS011;8068;51.322;9.450;2023-03-16T08:43:02;3.63;;;2.47;;
15938;SDS011;8068;51.322;9.450;2023-03-16T08:45:29;4.40;;;2.20;;
15938;SDS011;8068;51.322;9.450;2023-03-16T08:47:55;2.67;;;2.30;;
15938;SDS011;8068;51.322;9.450;2023-03-16T08:50:21;4.80;;;2.63;;
15938;SDS011;8068;51.322;9.450;2023-03-16T08:52:47;5.97;;;2.10;;
15938;SDS011;8068;51.322;9.450;2023-03-16T08:55:16;6.23;;;1.83;;
15938;SDS011;8068;51.322;9.450;2023-03-16T08:57:42;2.30;;;1.70;;
15938;SDS011;8068;51.322;9.450;2023-03-16T09:00:10;1.90;;;1.70;;
15938;SDS011;8068;51.322;9.450;2023-03-16T09:02:41;1.90;;;1.80;;
15938;SDS011;8068;51.322;9.450;2023-03-16T09:05:08;1.50;;;1.33;;
15938;SDS011;8068;51.322;9.450;2023-03-16T09:07:36;3.87;;;1.40;;
15938;SDS011;8068;51.322;9.450;2023-03-16T09:10:07;2.40;;;2.20;;
15938;SDS011;8068;51.322;9.450;2023-03-16T09:12:38;2.93;;;1.73;;
15938;SDS011;8068;51.322;9.450;2023-03-16T09:15:05;2.40;;;1.87;;
15938;SDS011;8068;51.322;9.450;2023-03-16T09:17:32;1.73;;;1.43;;
15938;SDS011;8068;51.322;9.450;2023-03-16T09:19:59;1.83;;;1.50;;
15938;SDS011;8068;51.322;9.450;2023-03-16T09:22:46;1.37;;;1.27;;
15938;SDS011;8068;51.322;9.450;2023-03-16T09:25:13;1.60;;;1.50;;
15938;SDS011;8068;51.322;9.450;2023-03-16T09:27:39;1.67;;;1.40;;
15938;SDS011;8068;51.322;9.450;2023-03-16T09:30:06;2.00;;;1.90;;
15938;SDS011;8068;51.322;9.450;2023-03-16T09:32:33;2.13;;;1.20;;
15938;SDS011;8068;51.322;9.450;2023-03-16T09:35:02;3.30;;;1.23;;
15938;SDS011;8068;51.322;9.450;2023-03-16T09:37:31;1.93;;;1.80;;
15938;SDS011;8068;51.322;9.450;2023-03-16T09:40:14;1.63;;;1.33;;
15938;SDS011;8068;51.322;9.450;2023-03-16T09:42:50;1.10;;;0.80;;
15938;SDS011;8068;51.322;9.450;2023-03-16T09:45:23;1.70;;;1.00;;
15938;SDS011;8068;51.322;9.450;2023-03-16T09:48:02;2.23;;;1.10;;
15938;SDS011;8068;51.322;9.450;2023-03-16T09:50:33;1.30;;;1.20;;
15938;SDS011;8068;51.322;9.450;2023-03-16T09:55:56;1.60;;;1.00;;
15938;SDS011;8068;51.322;9.450;2023-03-16T09:58:26;4.00;;;1.27;;
15938;SDS011;8068;51.322;9.450;2023-03-16T10:03:48;1.47;;;1.30;;
15938;SDS011;8068;51.322;9.450;2023-03-16T10:06:08;4.97;;;1.30;;
15938;SDS011;8068;51.322;9.450;2023-03-16T10:08:38;1.40;;;1.03;;
15938;SDS011;8068;51.322;9.450;2023-03-16T10:14:08;1.57;;;1.40;;
15938;SDS011;8068;51.322;9.450;2023-03-16T10:16:45;2.80;;;1.10;;
15938;SDS011;8068;51.322;9.450;2023-03-16T10:22:04;1.50;;;1.40;;
15938;SDS011;8068;51.322;9.450;2023-03-16T10:24:56;2.30;;;1.80;;
15938;SDS011;8068;51.322;9.450;2023-03-16T10:27:28;2.73;;;1.27;;
15938;SDS011;8068;51.322;9.450;2023-03-16T10:29:57;1.70;;;1.60;;
15938;SDS011;8068;51.322;9.450;2023-03-16T10:32:28;1.50;;;1.40;;
15938;SDS011;8068;51.322;9.450;2023-03-16T10:34:57;1.20;;;1.10;;
15938;SDS011;8068;51.322;9.450;2023-03-16T10:37:29;2.50;;;1.17;;
15938;SDS011;8068;51.322;9.450;2023-03-16T10:39:55;1.17;;;1.07;;
15938;SDS011;8068;51.322;9.450;2023-03-16T10:42:22;1.53;;;1.43;;
15938;SDS011;8068;51.322;9.450;2023-03-16T10:44:55;1.53;;;1.43;;
15938;SDS011;8068;51.322;9.450;2023-03-16T10:47:22;1.70;;;0.97;;
15938;SDS011;8068;51.322;9.450;2023-03-16T10:49:50;1.40;;;1.30;;
15938;SDS011;8068;51.322;9.450;2023-03-16T10:54:57;1.70;;;1.20;;
15938;SDS011;8068;51.322;9.450;2023-03-16T10:57:34;1.50;;;1.40;;
15938;SDS011;8068;51.322;9.450;2023-03-16T11:00:05;0.97;;;0.70;;
15938;SDS011;8068;51.322;9.450;2023-03-16T11:02:34;1.07;;;0.80;;
15938;SDS011;8068;51.322;9.450;2023-03-16T11:07:58;6.97;;;1.53;;
15938;SDS011;8068;51.322;9.450;2023-03-16T11:10:28;1.00;;;0.70;;
15938;SDS011;8068;51.322;9.450;2023-03-16T11:13:07;1.40;;;0.97;;
15938;SDS011;8068;51.322;9.450;2023-03-16T11:15:44;1.10;;;1.00;;
15938;SDS011;8068;51.322;9.450;2023-03-16T11:18:35;2.03;;;1.20;;
15938;SDS011;8068;51.322;9.450;2023-03-16T11:21:20;1.20;;;1.00;;
15938;SDS011;8068;51.322;9.450;2023-03-16T11:23:51;1.57;;;0.80;;
15938;SDS011;8068;51.322;9.450;2023-03-16T11:26:34;2.20;;;1.07;;
15938;SDS011;8068;51.322;9.450;2023-03-16T11:29:04;2.23;;;0.90;;
15938;SDS011;8068;51.322;9.450;2023-03-16T11:31:56;3.10;;;1.20;;
15938;SDS011;8068;51.322;9.450;2023-03-16T11:34:27;1.10;;;1.00;;
15938;SDS011;8068;51.322;9.450;2023-03-16T11:37:04;1.77;;;1.00;;
15938;SDS011;8068;51.322;9.450;2023-03-16T11:42:53;2.23;;;1.00;;
15938;SDS011;8068;51.322;9.450;2023-03-16T11:45:27;2.30;;;1.23;;
15938;SDS011;8068;51.322;9.450;2023-03-16T11:53:16;1.20;;;1.10;;
15938;SDS011;8068;51.322;9.450;2023-03-16T12:07:18;1.93;;;1.20;;
15938;SDS011;8068;51.322;9.450;2023-03-16T12:15:42;1.30;;;0.83;;
15938;SDS011;8068;51.322;9.450;2023-03-16T12:18:37;0.90;;;0.70;;
15938;SDS011;8068;51.322;9.450;2023-03-16T12:21:21;1.70;;;1.00;;
15938;SDS011;8068;51.322;9.450;2023-03-16T12:23:51;1.10;;;1.00;;
15938;SDS011;8068;51.322;9.450;2023-03-16T12:26:20;1.73;;;1.63;;
15938;SDS011;8068;51.322;9.450;2023-03-16T12:28:49;1.10;;;1.00;;
15938;SDS011;8068;51.322;9.450;2023-03-16T12:31:22;1.00;;;0.60;;
15938;SDS011;8068;51.322;9.450;2023-03-16T12:34:08;1.20;;;0.80;;
15938;SDS011;8068;51.322;9.450;2023-03-16T12:39:27;1.10;;;0.50;;
15938;SDS011;8068;51.322;9.450;2023-03-16T12:45:00;1.00;;;0.70;;
15938;SDS011;8068;51.322;9.450;2023-03-16T12:50:07;1.13;;;0.60;;
15938;SDS011;8068;51.322;9.450;2023-03-16T12:52:43;4.93;;;0.80;;
15938;SDS011;8068;51.322;9.450;2023-03-16T12:55:14;1.40;;;0.60;;
15938;SDS011;8068;51.322;9.450;2023-03-16T12:57:43;1.40;;;0.70;;
15938;SDS011;8068;51.322;9.450;2023-03-16T13:00:10;1.00;;;0.60;;
15938;SDS011;8068;51.322;9.450;2023-03-16T13:02:41;1.00;;;0.70;;
15938;SDS011;8068;51.322;9.450;2023-03-16T13:05:10;1.10;;;0.60;;
15938;SDS011;8068;51.322;9.450;2023-03-16T13:07:48;1.90;;;0.93;;
15938;SDS011;8068;51.322;9.450;2023-03-16T13:10:17;2.80;;;0.70;;
15938;SDS011;8068;51.322;9.450;2023-03-16T13:12:45;1.00;;;0.50;;
15938;SDS011;8068;51.322;9.450;2023-03-16T13:17:46;1.00;;;0.60;;
15938;SDS011;8068;51.322;9.450;2023-03-16T13:20:27;1.20;;;0.60;;
15938;SDS011;8068;51.322;9.450;2023-03-16T13:26:29;1.60;;;0.60;;
15938;SDS011;8068;51.322;9.450;2023-03-16T13:28:43;1.00;;;0.60;;
15938;SDS011;8068;51.322;9.450;2023-03-16T13:31:19;1.20;;;0.70;;
15938;SDS011;8068;51.322;9.450;2023-03-16T13:33:49;1.00;;;0.60;;
15938;SDS011;8068;51.322;9.450;2023-03-16T13:36:19;0.90;;;0.60;;
15938;SDS011;8068;51.322;9.450;2023-03-16T13:38:53;1.00;;;0.60;;
15938;SDS011;8068;51.322;9.450;2023-03-16T13:41:28;1.00;;;0.60;;
15938;SDS011;8068;51.322;9.450;2023-03-16T13:43:55;1.00;;;0.70;;
15938;SDS011;8068;51.322;9.450;2023-03-16T13:46:26;1.37;;;0.90;;
15938;SDS011;8068;51.322;9.450;2023-03-16T13:48:56;2.60;;;0.70;;
15938;SDS011;8068;51.322;9.450;2023-03-16T13:51:23;0.90;;;0.67;;
15938;SDS011;8068;51.322;9.450;2023-03-16T13:53:49;3.00;;;0.90;;
15938;SDS011;8068;51.322;9.450;2023-03-16T13:56:25;0.97;;;0.60;;
15938;SDS011;8068;51.322;9.450;2023-03-16T13:58:54;2.53;;;0.67;;
15938;SDS011;8068;51.322;9.450;2023-03-16T14:01:31;0.97;;;0.60;;
15938;SDS011;8068;51.322;9.450;2023-03-16T14:03:59;0.93;;;0.57;;
15938;SDS011;8068;51.322;9.450;2023-03-16T14:06:33;1.10;;;0.90;;
15938;SDS011;8068;51.322;9.450;2023-03-16T14:09:01;0.97;;;0.70;;
15938;SDS011;8068;51.322;9.450;2023-03-16T14:11:29;1.03;;;0.93;;
15938;SDS011;8068;51.322;9.450;2023-03-16T14:13:56;1.10;;;1.00;;
15938;SDS011;8068;51.322;9.450;2023-03-16T14:16:26;1.00;;;0.60;;
15938;SDS011;8068;51.322;9.450;2023-03-16T14:19:00;1.03;;;0.80;;
15938;SDS011;8068;51.322;9.450;2023-03-16T14:21:49;1.37;;;1.03;;
15938;SDS011;8068;51.322;9.450;2023-03-16T14:24:29;1.20;;;0.80;;
15938;SDS011;8068;51.322;9.450;2023-03-16T14:27:07;1.10;;;0.60;;
15938;SDS011;8068;51.322;9.450;2023-03-16T14:29:59;1.57;;;0.70;;
15938;SDS011;8068;51.322;9.450;2023-03-16T14:32:30;1.20;;;0.70;;
15938;SDS011;8068;51.322;9.450;2023-03-16T14:35:31;1.37;;;0.70;;
15938;SDS011;8068;51.322;9.450;2023-03-16T14:40:54;5.40;;;0.73;;
15938;SDS011;8068;51.322;9.450;2023-03-16T14:43:31;1.40;;;1.20;;
15938;SDS011;8068;51.322;9.450;2023-03-16T14:46:01;1.20;;;1.10;;
15938;SDS011;8068;51.322;9.450;2023-03-16T14:48:28;5.03;;;1.00;;
15938;SDS011;8068;51.322;9.450;2023-03-16T14:50:55;1.43;;;0.80;;
15938;SDS011;8068;51.322;9.450;2023-03-16T14:53:23;4.43;;;0.80;;
15938;SDS011;8068;51.322;9.450;2023-03-16T14:55:56;1.00;;;0.60;;
15938;SDS011;8068;51.322;9.450;2023-03-16T14:58:23;1.40;;;1.00;;
15938;SDS011;8068;51.322;9.450;2023-03-16T15:00:50;1.10;;;0.97;;
15938;SDS011;8068;51.322;9.450;2023-03-16T15:03:20;1.20;;;0.83;;
15938;SDS011;8068;51.322;9.450;2023-03-16T15:05:57;6.40;;;0.70;;
15938;SDS011;8068;51.322;9.450;2023-03-16T15:08:26;1.00;;;0.80;;
15938;SDS011;8068;51.322;9.450;2023-03-16T15:10:58;1.10;;;0.87;;
15938;SDS011;8068;51.322;9.450;2023-03-16T15:13:26;1.00;;;0.80;;
15938;SDS011;8068;51.322;9.450;2023-03-16T15:16:12;1.00;;;0.70;;
15938;SDS011;8068;51.322;9.450;2023-03-16T15:18:39;1.03;;;0.80;;
15938;SDS011;8068;51.322;9.450;2023-03-16T15:21:10;1.43;;;0.90;;
15938;SDS011;8068;51.322;9.450;2023-03-16T15:23:37;1.20;;;1.03;;
15938;SDS011;8068;51.322;9.450;2023-03-16T15:26:04;1.97;;;1.10;;
15938;SDS011;8068;51.322;9.450;2023-03-16T15:28:32;2.43;;;1.00;;
15938;SDS011;8068;51.322;9.450;2023-03-16T15:31:00;1.40;;;1.30;;
15938;SDS011;8068;51.322;9.450;2023-03-16T15:33:27;1.00;;;0.90;;
15938;SDS011;8068;51.322;9.450;2023-03-16T15:35:57;1.10;;;1.00;;
15938;SDS011;8068;51.322;9.450;2023-03-16T15:38:29;1.53;;;1.10;;
15938;SDS011;8068;51.322;9.450;2023-03-16T15:40:57;1.63;;;1.13;;
15938;SDS011;8068;51.322;9.450;2023-03-16T15:43:24;2.10;;;1.80;;
15938;SDS011;8068;51.322;9.450;2023-03-16T15:45:54;2.60;;;1.20;;
15938;SDS011;8068;51.322;9.450;2023-03-16T15:48:21;1.20;;;1.10;;
15938;SDS011;8068;51.322;9.450;2023-03-16T15:50:51;1.17;;;1.00;;
15938;SDS011;8068;51.322;9.450;2023-03-16T15:56:05;1.40;;;1.13;;
15938;SDS011;8068;51.322;9.450;2023-03-16T15:58:33;1.57;;;1.47;;
15938;SDS011;8068;51.322;9.450;2023-03-16T16:01:01;1.20;;;1.10;;
15938;SDS011;8068;51.322;9.450;2023-03-16T16:03:29;1.70;;;1.20;;
15938;SDS011;8068;51.322;9.450;2023-03-16T16:05:56;1.20;;;1.10;;
15938;SDS011;8068;51.322;9.450;2023-03-16T16:08:22;1.20;;;1.10;;
15938;SDS011;8068;51.322;9.450;2023-03-16T16:10:48;1.37;;;1.27;;
15938;SDS011;8068;51.322;9.450;2023-03-16T16:13:16;1.80;;;1.30;;
15938;SDS011;8068;51.322;9.450;2023-03-16T16:16:12;1.80;;;1.60;;
15938;SDS011;8068;51.322;9.450;2023-03-16T16:18:40;1.70;;;1.60;;
15938;SDS011;8068;51.322;9.450;2023-03-16T16:21:08;1.70;;;1.57;;
15938;SDS011;8068;51.322;9.450;2023-03-16T16:23:41;1.77;;;1.63;;